Terminal Aerodrome Forecast
Issued by NWS

Home | Current Version | Previous Version | Graphics & Text | Print | Product List | Glossary On
Versions: 1 2 3 4 5 6 7 8 9 10 11 12 13 14 15 16 17 18 19
000
FTUS41 KCLE 132320
TAFFDY
TAF
KFDY 132320Z 1400/1424 31005KT P6SM OVC040
     FM140500 VRB03KT P6SM SCT040
     FM141800 20007KT P6SM SCT080
     FM142200 17007KT P6SM SCT250=

USA.gov is the U.S. government's official web portal to all federal, state and local government web resources and services.